createdAt,value
2023-02-06T00:01:31.051Z,25.90
2023-02-06T00:03:57.897Z,31.95
2023-02-06T00:06:25.137Z,26.25
2023-02-06T00:08:52.072Z,26.63
2023-02-06T00:11:20.869Z,30.10
2023-02-06T00:13:48.199Z,28.27
2023-02-06T00:16:17.911Z,24.67
2023-02-06T00:18:44.792Z,26.52
2023-02-06T00:21:12.790Z,28.35
2023-02-06T00:23:39.676Z,25.77
2023-02-06T00:26:08.160Z,28.08
2023-02-06T00:28:35.172Z,24.40
2023-02-06T00:31:04.656Z,30.02
2023-02-06T00:33:31.648Z,23.27
2023-02-06T00:35:58.905Z,25.77
2023-02-06T00:38:26.017Z,30.85
2023-02-06T00:40:53.313Z,37.95
2023-02-06T00:43:20.191Z,28.83
2023-02-06T00:45:55.525Z,32.42
2023-02-06T00:48:23.648Z,33.53
2023-02-06T00:50:52.604Z,28.98
2023-02-06T00:53:20.177Z,29.05
2023-02-06T00:55:47.630Z,33.25
2023-02-06T00:58:14.984Z,31.23
2023-02-06T01:00:42.133Z,27.05
2023-02-06T01:03:09.060Z,30.05
2023-02-06T01:05:36.580Z,28.92
2023-02-06T01:08:04.602Z,27.08
2023-02-06T01:10:32.247Z,31.13
2023-02-06T01:12:59.297Z,32.50
2023-02-06T01:15:26.841Z,17.40
2023-02-06T01:17:53.805Z,23.08
2023-02-06T01:20:21.782Z,22.42
2023-02-06T01:22:48.831Z,16.73
2023-02-06T01:25:16.051Z,18.27
2023-02-06T01:27:42.955Z,18.38
2023-02-06T01:30:11.177Z,21.83
2023-02-06T01:32:40.086Z,17.80
2023-02-06T01:35:09.272Z,21.52
2023-02-06T01:37:37.360Z,19.35
2023-02-06T01:40:11.665Z,24.65
2023-02-06T01:42:39.168Z,22.15
2023-02-06T01:45:38.067Z,21.70
2023-02-06T01:48:10.049Z,23.15
2023-02-06T01:50:39.592Z,22.88
2023-02-06T01:53:06.974Z,30.38
2023-02-06T01:55:37.966Z,27.63
2023-02-06T01:58:05.828Z,44.03
2023-02-06T02:00:33.063Z,51.70
2023-02-06T02:03:01.154Z,83.88
2023-02-06T02:05:28.768Z,144.35
2023-02-06T02:08:04.591Z,107.57
2023-02-06T02:10:32.110Z,52.45
2023-02-06T02:12:58.954Z,65.68
2023-02-06T02:15:39.578Z,73.82
2023-02-06T02:18:19.070Z,55.88
2023-02-06T02:21:06.143Z,48.38
2023-02-06T02:24:01.970Z,44.65
2023-02-06T02:26:35.083Z,48.72
2023-02-06T02:29:39.103Z,63.65
2023-02-06T02:32:24.083Z,53.47
2023-02-06T02:35:29.998Z,157.55
2023-02-06T02:38:15.165Z,179.15
2023-02-06T02:41:38.141Z,136.18
2023-02-06T02:44:15.106Z,105.55
2023-02-06T02:46:49.122Z,82.72
2023-02-06T02:49:20.834Z,117.72
2023-02-06T02:51:49.560Z,101.25
2023-02-06T02:54:17.231Z,60.55
2023-02-06T02:56:44.456Z,97.05
2023-02-06T02:59:32.132Z,128.80
2023-02-06T03:02:11.401Z,34.45
2023-02-06T03:04:44.580Z,29.35
2023-02-06T03:07:22.498Z,17.98
2023-02-06T03:10:01.980Z,14.98
2023-02-06T03:12:34.552Z,16.75
2023-02-06T03:15:12.771Z,19.35
2023-02-06T03:17:46.535Z,16.50
2023-02-06T03:20:16.112Z,16.17
2023-02-06T03:22:46.216Z,17.40
2023-02-06T03:25:18.827Z,13.77
2023-02-06T03:27:46.963Z,14.65
2023-02-06T03:30:16.138Z,11.65
2023-02-06T03:32:47.234Z,9.15
2023-02-06T03:35:22.679Z,10.68
2023-02-06T03:37:50.412Z,12.35
2023-02-06T03:40:18.384Z,12.80
2023-02-06T03:42:50.659Z,12.68
2023-02-06T03:45:33.023Z,11.48
2023-02-06T03:48:16.635Z,12.73
2023-02-06T03:50:46.705Z,10.98
2023-02-06T03:53:15.714Z,8.88
2023-02-06T03:55:45.662Z,10.73
2023-02-06T03:58:14.751Z,12.45
2023-02-06T04:00:44.147Z,11.27
2023-02-06T04:03:13.022Z,13.90
2023-02-06T04:05:41.214Z,14.77
2023-02-06T04:08:08.052Z,14.43
2023-02-06T04:10:35.212Z,13.50
2023-02-06T04:13:02.114Z,14.00
2023-02-06T04:15:29.201Z,9.68
2023-02-06T04:18:01.247Z,8.82
2023-02-06T04:20:29.813Z,10.02
2023-02-06T04:22:58.273Z,14.75
2023-02-06T04:25:26.144Z,10.95
2023-02-06T04:27:52.950Z,10.90
2023-02-06T04:30:20.150Z,15.48
2023-02-06T04:32:47.015Z,11.73
2023-02-06T04:35:14.141Z,12.80
2023-02-06T04:37:41.027Z,21.17
2023-02-06T04:40:08.548Z,20.17
2023-02-06T04:42:35.574Z,12.45
2023-02-06T04:45:02.796Z,14.77
2023-02-06T04:47:29.626Z,14.23
2023-02-06T04:49:56.732Z,13.30
2023-02-06T04:52:23.626Z,20.60
2023-02-06T04:54:50.847Z,15.93
2023-02-06T04:57:17.631Z,21.75
2023-02-06T04:59:44.797Z,18.80
2023-02-06T05:02:11.618Z,18.45
2023-02-06T05:04:39.190Z,19.75
2023-02-06T05:07:06.345Z,18.88
2023-02-06T05:09:33.693Z,19.55
2023-02-06T05:12:00.533Z,18.75
2023-02-06T05:14:27.819Z,14.43
2023-02-06T05:16:54.628Z,17.77
2023-02-06T05:19:21.886Z,13.35
2023-02-06T05:21:48.826Z,17.38
2023-02-06T05:24:16.056Z,18.15
2023-02-06T05:26:42.886Z,23.55
2023-02-06T05:29:10.032Z,32.85
2023-02-06T05:31:36.948Z,23.63
2023-02-06T05:34:04.287Z,26.75
2023-02-06T05:36:31.120Z,24.30
2023-02-06T05:38:58.314Z,20.13
2023-02-06T05:41:25.197Z,23.45
2023-02-06T05:43:52.366Z,27.10
2023-02-06T05:46:19.569Z,21.83
2023-02-06T05:48:46.739Z,24.00
2023-02-06T05:51:13.606Z,23.70
2023-02-06T05:53:40.800Z,23.58
2023-02-06T05:56:07.699Z,23.83
2023-02-06T05:58:34.902Z,28.65
2023-02-06T06:01:01.949Z,23.27
2023-02-06T06:03:29.998Z,26.60
2023-02-06T06:05:59.070Z,29.48
2023-02-06T06:08:26.243Z,23.02
2023-02-06T06:10:53.356Z,27.85
2023-02-06T06:13:20.596Z,26.23
2023-02-06T06:15:53.811Z,28.45
2023-02-06T06:18:21.678Z,24.98
2023-02-06T06:20:49.077Z,26.27
2023-02-06T06:23:16.334Z,24.33
2023-02-06T06:25:43.887Z,35.30
2023-02-06T06:28:11.040Z,32.60
2023-02-06T06:30:38.076Z,34.30
2023-02-06T06:33:05.287Z,37.08
2023-02-06T06:35:34.291Z,33.38
2023-02-06T06:38:01.485Z,55.53
2023-02-06T06:40:28.524Z,74.45
2023-02-06T06:42:55.554Z,39.47
2023-02-06T06:45:22.446Z,186.43
2023-02-06T06:47:49.779Z,80.60
2023-02-06T06:50:16.828Z,51.88
2023-02-06T06:52:44.023Z,80.30
2023-02-06T06:55:11.116Z,180.55
2023-02-06T06:57:38.310Z,101.10
2023-02-06T07:00:06.109Z,68.75
2023-02-06T07:02:33.404Z,66.90
2023-02-06T07:05:00.539Z,56.55
2023-02-06T07:07:27.985Z,40.72
2023-02-06T07:09:55.003Z,39.53
2023-02-06T07:12:23.112Z,41.10
2023-02-06T07:14:50.302Z,36.50
2023-02-06T07:17:17.528Z,42.85
2023-02-06T07:19:48.755Z,39.05
2023-02-06T07:22:16.238Z,42.03
2023-02-06T07:24:43.279Z,67.95
2023-02-06T07:27:10.474Z,42.97
2023-02-06T07:29:37.975Z,65.68
2023-02-06T07:32:06.217Z,75.03
2023-02-06T07:34:33.111Z,127.93
2023-02-06T07:37:01.100Z,94.85
2023-02-06T07:39:28.112Z,92.18
2023-02-06T07:41:55.357Z,67.78
2023-02-06T07:44:22.267Z,44.17
2023-02-06T07:46:49.651Z,36.47
2023-02-06T07:49:16.545Z,39.60
2023-02-06T07:51:45.038Z,38.15
2023-02-06T07:54:12.651Z,43.05
2023-02-06T07:56:40.054Z,27.60
2023-02-06T07:59:08.321Z,25.17
2023-02-06T08:01:35.683Z,25.20
2023-02-06T08:04:02.861Z,21.85
2023-02-06T08:06:30.175Z,22.88
2023-02-06T08:08:57.417Z,25.67
2023-02-06T08:11:27.772Z,29.23
2023-02-06T08:13:54.721Z,22.92
2023-02-06T08:16:23.604Z,19.98
2023-02-06T08:18:51.298Z,17.05
2023-02-06T08:21:21.637Z,20.98
2023-02-06T08:24:02.391Z,21.13
2023-02-06T08:26:30.211Z,23.13
2023-02-06T08:29:00.460Z,24.40
2023-02-06T08:31:36.606Z,17.65
2023-02-06T08:34:04.949Z,17.42
2023-02-06T08:36:32.745Z,16.80
2023-02-06T08:39:00.742Z,14.00
2023-02-06T08:41:30.872Z,14.95
2023-02-06T08:44:00.260Z,21.60
2023-02-06T08:46:29.781Z,25.25
2023-02-06T08:48:58.745Z,15.77
2023-02-06T08:51:29.194Z,15.23
2023-02-06T08:54:00.681Z,18.80
2023-02-06T08:56:28.701Z,18.67
2023-02-06T08:58:59.741Z,10.23
2023-02-06T09:01:27.952Z,7.38
2023-02-06T09:03:56.522Z,11.77
2023-02-06T09:06:25.852Z,11.30
2023-02-06T09:08:53.205Z,12.55
2023-02-06T09:11:22.410Z,11.50
2023-02-06T09:13:50.382Z,16.13
2023-02-06T09:16:19.995Z,15.35
2023-02-06T09:18:47.905Z,10.43
2023-02-06T09:21:21.661Z,14.73
2023-02-06T09:23:51.737Z,12.35
2023-02-06T09:26:30.580Z,13.20
2023-02-06T09:29:01.865Z,14.35
2023-02-06T09:31:33.604Z,15.75
2023-02-06T09:34:00.576Z,17.45
2023-02-06T09:36:30.313Z,18.90
2023-02-06T09:38:58.373Z,12.20
2023-02-06T09:41:36.785Z,117.93
2023-02-06T09:46:37.086Z,14.68
2023-02-06T09:49:14.363Z,12.82
2023-02-06T09:52:10.337Z,16.67
2023-02-06T09:54:54.032Z,38.83
2023-02-06T09:57:37.356Z,15.60
2023-02-06T10:00:16.146Z,14.50
2023-02-06T10:03:20.579Z,15.07
2023-02-06T10:06:01.530Z,15.55
2023-02-06T10:08:37.488Z,16.05
2023-02-06T10:11:43.013Z,16.17
2023-02-06T10:14:31.958Z,19.95
2023-02-06T10:17:03.132Z,16.77
2023-02-06T10:19:52.186Z,13.40
2023-02-06T10:22:27.798Z,13.98
2023-02-06T10:24:58.185Z,12.48
2023-02-06T10:27:24.987Z,15.98
2023-02-06T10:29:52.235Z,35.58
2023-02-06T10:32:19.051Z,26.75
2023-02-06T10:35:27.935Z,101.15
2023-02-06T10:38:40.978Z,21.80
2023-02-06T10:41:32.717Z,18.65
2023-02-06T10:44:13.687Z,11.57
2023-02-06T10:46:44.795Z,14.80
2023-02-06T10:49:14.544Z,15.10
2023-02-06T10:51:45.455Z,15.50
2023-02-06T10:54:18.911Z,22.10
2023-02-06T10:56:48.117Z,16.92
2023-02-06T10:59:34.844Z,20.10
2023-02-06T11:02:08.085Z,16.23
2023-02-06T11:04:39.331Z,21.42
2023-02-06T11:07:14.639Z,17.55
2023-02-06T11:09:41.571Z,12.43
2023-02-06T11:12:27.088Z,13.93
2023-02-06T11:14:55.445Z,16.67
2023-02-06T11:17:23.781Z,12.02
2023-02-06T11:19:53.457Z,14.57
2023-02-06T11:22:29.723Z,12.45
2023-02-06T11:25:03.603Z,15.07
2023-02-06T11:27:33.798Z,15.02
2023-02-06T11:30:07.822Z,14.38
2023-02-06T11:32:41.519Z,9.55
2023-02-06T11:35:30.422Z,11.90
2023-02-06T11:38:17.877Z,11.90
2023-02-06T11:40:56.278Z,10.93
2023-02-06T11:43:26.539Z,12.50
2023-02-06T11:46:16.909Z,13.18
2023-02-06T11:49:00.600Z,14.15
2023-02-06T11:51:52.742Z,12.07
2023-02-06T11:54:28.262Z,9.70
2023-02-06T11:57:23.156Z,9.77
2023-02-06T11:59:56.263Z,11.20
2023-02-06T12:02:35.002Z,8.85
2023-02-06T12:05:16.214Z,10.77
2023-02-06T12:08:24.260Z,9.93
2023-02-06T12:11:00.611Z,10.00
2023-02-06T12:13:42.065Z,9.73
2023-02-06T12:16:13.901Z,12.15
2023-02-06T12:18:44.402Z,13.48
2023-02-06T12:21:16.671Z,16.27
2023-02-06T12:23:47.460Z,10.85
2023-02-06T12:26:20.742Z,10.63
2023-02-06T12:29:08.287Z,13.20
2023-02-06T12:31:50.476Z,10.70
2023-02-06T12:34:21.725Z,15.80
2023-02-06T12:37:25.391Z,11.40
2023-02-06T12:39:53.003Z,10.65
2023-02-06T12:42:39.651Z,8.95
2023-02-06T12:45:21.674Z,11.70
2023-02-06T12:47:52.952Z,13.60
2023-02-06T12:50:33.933Z,11.63
2023-02-06T12:53:06.582Z,11.48
2023-02-06T12:55:39.163Z,9.60
2023-02-06T12:58:29.385Z,11.45
2023-02-06T13:01:34.718Z,12.55
2023-02-06T13:04:33.265Z,11.18
2023-02-06T13:07:08.462Z,15.38
2023-02-06T13:09:47.069Z,18.73
2023-02-06T13:12:15.454Z,11.35
2023-02-06T13:14:57.933Z,10.27
2023-02-06T13:17:35.192Z,10.05
2023-02-06T13:20:10.254Z,12.32
2023-02-06T13:23:00.568Z,12.50
2023-02-06T13:25:30.734Z,15.93
2023-02-06T13:28:01.373Z,11.27
2023-02-06T13:30:31.515Z,13.73
2023-02-06T13:33:19.699Z,12.23
2023-02-06T13:35:58.623Z,13.38
2023-02-06T13:38:38.311Z,11.98
2023-02-06T13:41:14.474Z,11.07
2023-02-06T13:43:46.759Z,11.30
2023-02-06T13:46:17.500Z,12.55
2023-02-06T13:49:09.175Z,13.32
2023-02-06T13:52:06.402Z,13.57
2023-02-06T13:57:43.745Z,15.45
2023-02-06T14:00:10.892Z,15.10
2023-02-06T14:02:41.867Z,14.60
2023-02-06T14:05:16.939Z,20.75
2023-02-06T14:08:06.591Z,21.55
2023-02-06T14:11:11.181Z,18.50
2023-02-06T14:14:14.805Z,18.63
2023-02-06T14:17:09.264Z,14.85
2023-02-06T14:19:59.828Z,12.98
2023-02-06T14:22:47.071Z,14.32
2023-02-06T14:25:25.395Z,13.48
2023-02-06T14:28:29.864Z,18.77
2023-02-06T14:31:06.579Z,23.40
2023-02-06T14:33:39.739Z,19.23
2023-02-06T14:36:19.964Z,14.82
2023-02-06T14:39:28.548Z,15.65
2023-02-06T14:41:56.336Z,15.40
2023-02-06T14:44:29.507Z,13.20
2023-02-06T14:46:57.438Z,12.65
2023-02-06T14:49:37.262Z,13.98
2023-02-06T14:52:05.238Z,17.20
2023-02-06T14:54:38.512Z,14.27
2023-02-06T14:57:16.498Z,23.23
2023-02-06T14:59:55.952Z,20.27
2023-02-06T15:02:30.275Z,24.08
2023-02-06T15:04:58.238Z,20.90
2023-02-06T15:07:33.906Z,20.35
2023-02-06T15:10:06.302Z,31.83
2023-02-06T15:12:35.837Z,28.85
2023-02-06T15:15:16.634Z,32.08
2023-02-06T15:17:55.067Z,33.22
2023-02-06T15:20:34.771Z,32.53
2023-02-06T15:25:56.159Z,25.15
2023-02-06T15:28:30.601Z,26.08
2023-02-06T15:31:00.327Z,29.40
2023-02-06T15:33:34.819Z,30.35
2023-02-06T15:36:04.018Z,36.25
2023-02-06T15:38:33.355Z,37.65
2023-02-06T15:41:06.402Z,41.15
2023-02-06T15:43:34.477Z,38.95
2023-02-06T15:46:04.502Z,40.97
2023-02-06T15:48:49.092Z,47.72
2023-02-06T15:51:24.295Z,47.40
2023-02-06T15:54:04.930Z,42.50
2023-02-06T15:56:41.641Z,44.83
2023-02-06T15:59:36.665Z,49.42
2023-02-06T16:02:04.279Z,47.53
2023-02-06T16:04:37.789Z,52.60
2023-02-06T16:07:18.321Z,60.40
2023-02-06T16:10:22.894Z,66.15
2023-02-06T16:12:51.066Z,74.28
2023-02-06T16:15:21.237Z,82.65
2023-02-06T16:17:48.232Z,114.18
2023-02-06T16:20:34.439Z,124.30
2023-02-06T16:23:27.602Z,161.35
2023-02-06T16:26:14.543Z,149.82
2023-02-06T16:28:56.873Z,172.38
2023-02-06T16:31:26.725Z,209.70
2023-02-06T16:33:55.018Z,197.40
2023-02-06T16:36:23.999Z,274.70
2023-02-06T16:39:03.192Z,274.00
2023-02-06T16:41:37.268Z,234.07
2023-02-06T16:44:11.379Z,228.38
2023-02-06T16:46:38.822Z,241.77
2023-02-06T16:49:12.705Z,250.15
2023-02-06T16:51:42.570Z,252.73
2023-02-06T16:54:20.423Z,185.23
2023-02-06T16:56:48.040Z,179.90
2023-02-06T16:59:15.167Z,228.50
2023-02-06T17:01:42.332Z,202.25
2023-02-06T17:04:09.302Z,164.52
2023-02-06T17:06:36.477Z,176.15
2023-02-06T17:09:09.075Z,168.88
2023-02-06T17:11:37.427Z,159.80
2023-02-06T17:14:04.520Z,150.88
2023-02-06T17:16:32.331Z,206.75
2023-02-06T17:18:59.481Z,191.93
2023-02-06T17:21:29.737Z,198.00
2023-02-06T17:23:56.654Z,111.13
2023-02-06T17:26:23.876Z,76.22
2023-02-06T17:28:51.863Z,76.40
2023-02-06T17:31:19.860Z,53.97
2023-02-06T17:33:46.891Z,38.15
2023-02-06T17:36:17.508Z,35.22
2023-02-06T17:38:44.897Z,28.23
2023-02-06T17:41:12.305Z,29.92
2023-02-06T17:43:39.226Z,28.95
2023-02-06T17:46:06.840Z,33.90
2023-02-06T17:48:36.628Z,34.95
2023-02-06T17:51:05.672Z,42.63
2023-02-06T17:53:32.747Z,37.50
2023-02-06T17:56:07.604Z,34.20
2023-02-06T17:58:35.096Z,36.67
2023-02-06T18:01:02.309Z,36.13
2023-02-06T18:03:29.200Z,37.60
2023-02-06T18:06:00.964Z,27.33
2023-02-06T18:08:29.294Z,33.08
2023-02-06T18:10:56.691Z,33.95
2023-02-06T18:13:24.496Z,35.53
2023-02-06T18:15:54.651Z,35.33
2023-02-06T18:18:23.405Z,29.85
2023-02-06T18:20:51.118Z,33.78
2023-02-06T18:23:19.528Z,37.15
2023-02-06T18:25:46.729Z,32.40
2023-02-06T18:28:14.902Z,27.98
2023-02-06T18:30:42.346Z,35.05
2023-02-06T18:33:12.823Z,49.55
2023-02-06T18:35:42.415Z,36.20
2023-02-06T18:38:10.087Z,37.40
2023-02-06T18:40:39.066Z,38.55
2023-02-06T18:43:07.016Z,24.73
2023-02-06T18:45:41.301Z,28.30
2023-02-06T18:48:11.270Z,36.53
2023-02-06T18:50:41.471Z,31.60
2023-02-06T18:53:09.640Z,39.40
2023-02-06T18:55:37.778Z,38.13
2023-02-06T18:58:06.541Z,44.47
2023-02-06T19:00:35.903Z,37.28
2023-02-06T19:03:03.755Z,40.88
2023-02-06T19:05:36.137Z,40.25
2023-02-06T19:08:03.302Z,65.95
2023-02-06T19:10:30.900Z,57.15
2023-02-06T19:12:57.859Z,28.98
2023-02-06T19:15:25.091Z,24.75
2023-02-06T19:17:51.991Z,30.75
2023-02-06T19:20:19.695Z,32.83
2023-02-06T19:22:46.606Z,36.53
2023-02-06T19:25:14.900Z,30.15
2023-02-06T19:27:41.882Z,38.58
2023-02-06T19:30:09.824Z,36.10
2023-02-06T19:32:36.946Z,41.63
2023-02-06T19:35:05.266Z,42.17
2023-02-06T19:37:32.240Z,41.03
2023-02-06T19:39:59.446Z,41.63
2023-02-06T19:42:26.298Z,54.45
2023-02-06T19:44:56.937Z,40.83
2023-02-06T19:47:24.000Z,46.35
2023-02-06T19:49:56.049Z,46.38
2023-02-06T19:52:23.012Z,30.27
2023-02-06T19:54:50.334Z,23.23
2023-02-06T19:57:19.534Z,29.88
2023-02-06T19:59:46.822Z,31.88
2023-02-06T20:02:15.671Z,32.97
2023-02-06T20:04:43.109Z,34.85
2023-02-06T20:07:09.918Z,27.90
2023-02-06T20:09:41.948Z,30.30
2023-02-06T20:12:10.753Z,37.35
2023-02-06T20:14:38.097Z,36.45
2023-02-06T20:17:05.384Z,24.02
2023-02-06T20:19:32.561Z,23.73
2023-02-06T20:22:00.475Z,24.00
2023-02-06T20:24:30.405Z,18.67
2023-02-06T20:27:00.853Z,23.90
2023-02-06T20:29:32.137Z,25.40
2023-02-06T20:31:59.253Z,23.75
2023-02-06T20:34:27.330Z,24.08
2023-02-06T20:36:54.927Z,33.28
2023-02-06T20:39:24.269Z,34.42
2023-02-06T20:41:51.549Z,31.65
2023-02-06T20:44:19.532Z,29.00
2023-02-06T20:46:47.327Z,39.55
2023-02-06T20:49:17.455Z,37.28
2023-02-06T20:51:44.715Z,51.72
2023-02-06T20:54:12.099Z,37.33
2023-02-06T20:56:39.665Z,42.05
2023-02-06T20:59:07.995Z,41.15
2023-02-06T21:01:35.557Z,41.20
2023-02-06T21:04:06.052Z,38.50
2023-02-06T21:06:34.634Z,45.78
2023-02-06T21:09:03.193Z,39.33
2023-02-06T21:11:44.308Z,32.17
2023-02-06T21:14:12.664Z,33.75
2023-02-06T21:16:40.017Z,30.25
2023-02-06T21:19:09.364Z,36.95
2023-02-06T21:21:37.308Z,33.88
2023-02-06T21:24:05.645Z,27.75
2023-02-06T21:26:33.444Z,25.35
2023-02-06T21:29:02.527Z,33.80
2023-02-06T21:31:37.775Z,28.55
2023-02-06T21:34:26.089Z,24.80
2023-02-06T21:36:54.747Z,27.65
2023-02-06T21:39:27.104Z,25.60
2023-02-06T21:44:26.808Z,28.40
2023-02-06T21:46:55.929Z,24.42
2023-02-06T21:49:24.106Z,23.58
2023-02-06T21:51:51.625Z,26.45
2023-02-06T21:54:19.080Z,35.40
2023-02-06T21:56:46.076Z,34.38
2023-02-06T21:59:13.552Z,29.17
2023-02-06T22:01:41.284Z,32.05
2023-02-06T22:04:10.280Z,30.58
2023-02-06T22:06:38.115Z,30.55
2023-02-06T22:09:07.841Z,43.15
2023-02-06T22:11:37.119Z,35.42
2023-02-06T22:14:10.454Z,39.65
2023-02-06T22:16:38.339Z,42.30
2023-02-06T22:19:05.842Z,33.50
2023-02-06T22:21:34.020Z,29.52
2023-02-06T22:24:05.449Z,44.85
2023-02-06T22:26:36.840Z,29.25
2023-02-06T22:29:05.278Z,24.50
2023-02-06T22:31:34.001Z,25.58
2023-02-06T22:34:01.979Z,30.48
2023-02-06T22:36:32.652Z,27.60
2023-02-06T22:39:03.431Z,30.52
2023-02-06T22:41:30.786Z,35.53
2023-02-06T22:43:58.156Z,32.20
2023-02-06T22:46:28.346Z,37.80
2023-02-06T22:48:55.988Z,40.05
2023-02-06T22:51:24.139Z,36.67
2023-02-06T22:53:51.866Z,26.90
2023-02-06T22:56:30.435Z,18.88
2023-02-06T22:59:02.352Z,29.02
2023-02-06T23:01:35.246Z,27.88
2023-02-06T23:04:04.674Z,31.25
2023-02-06T23:06:33.873Z,32.20
2023-02-06T23:09:03.545Z,28.95
2023-02-06T23:11:32.039Z,36.90
2023-02-06T23:14:01.799Z,28.27
2023-02-06T23:16:30.289Z,22.92
2023-02-06T23:18:57.551Z,34.97
2023-02-06T23:21:25.983Z,45.25
2023-02-06T23:23:56.055Z,36.05
2023-02-06T23:26:23.366Z,35.40
2023-02-06T23:28:50.630Z,36.65
2023-02-06T23:31:17.662Z,46.03
2023-02-06T23:33:45.170Z,46.22
2023-02-06T23:36:16.084Z,46.42
2023-02-06T23:38:44.334Z,55.70
2023-02-06T23:41:14.011Z,110.93
2023-02-06T23:43:41.810Z,54.38
2023-02-06T23:46:12.382Z,94.28
2023-02-06T23:48:40.103Z,111.72
2023-02-06T23:51:07.193Z,90.45
2023-02-06T23:53:34.962Z,91.47
2023-02-06T23:56:02.130Z,95.30
2023-02-06T23:58:29.298Z,99.32
